createdAt,value
2018-03-29T00:00:31.367Z,992.60
2018-03-29T00:01:39.048Z,992.62
2018-03-29T00:02:53.604Z,992.57
2018-03-29T00:03:32.920Z,992.61
2018-03-29T00:04:45.726Z,992.59
2018-03-29T00:06:07.440Z,992.57
2018-03-29T00:06:57.412Z,992.62
2018-03-29T00:07:59.163Z,992.67
2018-03-29T00:09:19.956Z,992.68
2018-03-29T00:10:16.894Z,992.66
2018-03-29T00:11:26.741Z,992.61
2018-03-29T00:12:24.597Z,992.65
2018-03-29T00:13:51.316Z,992.62
2018-03-29T00:14:27.467Z,992.64
2018-03-29T00:15:38.129Z,992.68
2018-03-29T00:16:54.921Z,992.69
2018-03-29T00:17:45.828Z,992.67
2018-03-29T00:19:03.542Z,992.64
2018-03-29T00:20:13.990Z,992.70
2018-03-29T00:21:11.131Z,992.66
2018-03-29T00:22:12.365Z,992.65
2018-03-29T00:23:16.058Z,992.70
2018-03-29T00:24:26.920Z,992.63
2018-03-29T00:25:31.638Z,992.60
2018-03-29T00:26:37.378Z,992.69
2018-03-29T00:27:46.397Z,992.67
2018-03-29T00:30:06.993Z,992.70
2018-03-29T00:31:04.952Z,992.73
2018-03-29T00:34:36.513Z,992.69
2018-03-29T00:35:34.164Z,992.71
2018-03-29T00:37:33.360Z,992.71
2018-03-29T00:38:37.975Z,992.71
2018-03-29T00:39:57.545Z,992.69
2018-03-29T00:40:57.452Z,992.76
2018-03-29T00:43:01.147Z,992.71
2018-03-29T00:45:13.857Z,992.77
2018-03-29T00:46:23.591Z,992.77
2018-03-29T00:47:08.553Z,992.76
2018-03-29T00:48:48.388Z,992.79
2018-03-29T00:49:39.284Z,992.78
2018-03-29T00:51:49.021Z,992.76
2018-03-29T00:52:53.752Z,992.84
2018-03-29T00:54:00.505Z,992.85
2018-03-29T00:55:33.288Z,992.83
2018-03-29T00:56:20.180Z,992.84
2018-03-29T00:57:20.495Z,992.84
2018-03-29T00:58:16.008Z,992.82
2018-03-29T00:59:30.749Z,992.85
2018-03-29T01:01:40.490Z,992.89
2018-03-29T01:02:58.213Z,992.90
2018-03-29T01:03:49.110Z,992.96
2018-03-29T01:05:11.029Z,992.96
2018-03-29T01:06:00.385Z,992.99
2018-03-29T01:07:22.713Z,993.09
2018-03-29T01:09:44.541Z,993.06
2018-03-29T01:10:34.102Z,993.07
2018-03-29T01:11:39.953Z,993.05
2018-03-29T01:14:11.601Z,993.08
2018-03-29T01:14:53.587Z,993.05
2018-03-29T01:16:03.630Z,993.07
2018-03-29T01:17:08.345Z,993.06
2018-03-29T01:18:09.172Z,993.07
2018-03-29T01:19:35.807Z,993.10
2018-03-29T01:20:11.858Z,993.11
2018-03-29T01:21:36.534Z,993.18
2018-03-29T01:22:32.035Z,993.19
2018-03-29T01:23:23.030Z,993.15
2018-03-29T01:24:26.007Z,993.21
2018-03-29T01:25:36.260Z,993.25
2018-03-29T01:26:42.814Z,993.23
2018-03-29T01:27:48.762Z,993.25
2018-03-29T01:28:56.043Z,993.24
2018-03-29T01:30:19.497Z,993.28
2018-03-29T01:31:04.559Z,993.25
2018-03-29T01:32:30.060Z,993.21
2018-03-29T01:34:41.541Z,993.22
2018-03-29T01:35:51.691Z,993.26
2018-03-29T01:38:00.101Z,993.29
2018-03-29T01:39:57.856Z,993.32
2018-03-29T01:41:57.460Z,993.37
2018-03-29T01:43:20.406Z,993.36
2018-03-29T01:44:16.111Z,993.37
2018-03-29T01:45:28.000Z,993.38
2018-03-29T01:46:38.754Z,993.40
2018-03-29T01:47:28.628Z,993.40
2018-03-29T01:49:00.377Z,993.46
2018-03-29T01:49:44.307Z,993.45
2018-03-29T01:51:17.083Z,993.45
2018-03-29T01:52:00.910Z,993.49
2018-03-29T01:53:17.709Z,993.41
2018-03-29T01:54:15.471Z,993.49
2018-03-29T01:54:58.575Z,993.47
2018-03-29T01:56:27.358Z,993.43
2018-03-29T01:57:21.220Z,993.51
2018-03-29T01:59:32.806Z,993.52
2018-03-29T02:00:50.632Z,993.54
2018-03-29T02:01:43.673Z,993.51
2018-03-29T02:02:46.252Z,993.53
2018-03-29T02:04:09.800Z,993.57
2018-03-29T02:05:24.963Z,993.58
2018-03-29T02:06:04.906Z,993.62
2018-03-29T02:07:26.614Z,993.61
2018-03-29T02:08:23.550Z,993.67
2018-03-29T02:09:32.361Z,993.62
2018-03-29T02:10:29.196Z,993.68
2018-03-29T02:11:51.124Z,993.68
2018-03-29T02:12:33.714Z,993.66
2018-03-29T02:14:11.610Z,993.73
2018-03-29T02:14:51.648Z,993.67
2018-03-29T02:16:03.341Z,993.68
2018-03-29T02:17:01.188Z,993.74
2018-03-29T02:19:24.037Z,993.73
2018-03-29T02:20:48.013Z,993.75
2018-03-29T02:21:31.528Z,993.75
2018-03-29T02:22:33.377Z,993.75
2018-03-29T02:24:53.048Z,993.76
2018-03-29T02:26:02.897Z,993.76
2018-03-29T02:27:07.848Z,993.72
2018-03-29T02:30:16.230Z,993.79
2018-03-29T02:31:24.027Z,993.80
2018-03-29T02:32:37.951Z,993.78
2018-03-29T02:33:50.860Z,993.79
2018-03-29T02:34:43.701Z,993.81
2018-03-29T02:38:27.450Z,993.76
2018-03-29T02:39:24.236Z,993.78
2018-03-29T02:40:26.541Z,993.77
2018-03-29T02:41:31.871Z,993.76
2018-03-29T02:42:34.236Z,993.82
2018-03-29T02:43:38.448Z,993.81
2018-03-29T02:45:46.132Z,993.80
2018-03-29T02:46:55.971Z,993.87
2018-03-29T02:47:42.766Z,993.85
2018-03-29T02:48:58.543Z,993.84
2018-03-29T02:50:23.227Z,993.88
2018-03-29T02:51:07.262Z,993.88
2018-03-29T02:52:15.869Z,993.86
2018-03-29T02:53:11.577Z,993.89
2018-03-29T02:54:27.660Z,993.92
2018-03-29T02:55:27.565Z,993.95
2018-03-29T02:56:24.704Z,993.97
2018-03-29T02:57:44.166Z,993.97
2018-03-29T02:58:48.685Z,994.03
2018-03-29T03:00:09.884Z,994.03
2018-03-29T03:01:15.933Z,994.05
2018-03-29T03:02:33.654Z,994.00
2018-03-29T03:03:20.349Z,994.01
2018-03-29T03:04:33.361Z,994.02
2018-03-29T03:05:26.098Z,994.01
2018-03-29T03:06:35.834Z,994.03
2018-03-29T03:07:53.759Z,994.03
2018-03-29T03:08:44.044Z,994.03
2018-03-29T03:10:03.398Z,994.02
2018-03-29T03:11:07.295Z,994.09
2018-03-29T03:13:11.610Z,994.12
2018-03-29T03:14:21.656Z,994.10
2018-03-29T03:15:22.178Z,994.12
2018-03-29T03:16:20.543Z,994.08
2018-03-29T03:17:15.224Z,994.10
2018-03-29T03:19:46.880Z,994.12
2018-03-29T03:20:39.001Z,994.09
2018-03-29T03:21:31.638Z,994.14
2018-03-29T03:22:44.443Z,994.12
2018-03-29T03:24:05.141Z,994.16
2018-03-29T03:25:24.908Z,994.15
2018-03-29T03:26:20.202Z,994.17
2018-03-29T03:27:20.725Z,994.19
2018-03-29T03:28:37.328Z,994.24
2018-03-29T03:29:32.923Z,994.23
2018-03-29T03:30:49.315Z,994.22
2018-03-29T03:31:44.711Z,994.22
2018-03-29T03:32:46.975Z,994.23
2018-03-29T03:34:01.518Z,994.27
2018-03-29T03:35:27.432Z,994.26
2018-03-29T03:36:02.556Z,994.30
2018-03-29T03:37:30.111Z,994.26
2018-03-29T03:38:37.089Z,994.33
2018-03-29T03:39:59.721Z,994.35
2018-03-29T03:41:18.467Z,994.35
2018-03-29T03:42:04.136Z,994.35
2018-03-29T03:43:17.152Z,994.36
2018-03-29T03:44:21.968Z,994.37
2018-03-29T03:45:24.022Z,994.35
2018-03-29T03:46:08.771Z,994.39
2018-03-29T03:48:53.331Z,994.39
2018-03-29T03:49:55.283Z,994.41
2018-03-29T03:50:40.143Z,994.43
2018-03-29T03:52:04.820Z,994.46
2018-03-29T03:53:14.659Z,994.40
2018-03-29T03:54:06.265Z,994.48
2018-03-29T03:56:02.491Z,994.43
2018-03-29T04:01:43.181Z,994.49
2018-03-29T04:02:41.241Z,994.50
2018-03-29T04:04:16.986Z,994.52
2018-03-29T04:04:50.985Z,994.51
2018-03-29T04:06:24.169Z,994.51
2018-03-29T04:07:07.175Z,994.44
2018-03-29T04:08:26.332Z,994.43
2018-03-29T04:09:37.092Z,994.46
2018-03-29T04:10:42.021Z,994.41
2018-03-29T04:11:41.815Z,994.50
2018-03-29T04:13:38.453Z,994.44
2018-03-29T04:14:34.565Z,994.45
2018-03-29T04:15:38.055Z,994.39
2018-03-29T04:16:48.411Z,994.42
2018-03-29T04:17:48.206Z,994.38
2018-03-29T04:19:10.742Z,994.35
2018-03-29T04:20:07.676Z,994.34
2018-03-29T04:21:29.393Z,994.33
2018-03-29T04:22:27.146Z,994.31
2018-03-29T04:23:35.039Z,994.33
2018-03-29T04:24:41.599Z,994.31
2018-03-29T04:26:56.465Z,994.25
2018-03-29T04:31:15.945Z,994.32
2018-03-29T04:32:24.759Z,994.26
2018-03-29T04:33:16.574Z,994.34
2018-03-29T04:34:48.325Z,994.38
2018-03-29T04:35:34.199Z,994.38
2018-03-29T04:36:31.034Z,994.42
2018-03-29T04:38:45.792Z,994.35
2018-03-29T04:40:00.750Z,994.36
2018-03-29T04:40:41.608Z,994.39
2018-03-29T04:42:06.395Z,994.40
2018-03-29T04:45:17.784Z,994.41
2018-03-29T04:48:37.464Z,994.38
2018-03-29T04:49:37.276Z,994.38
2018-03-29T04:50:40.348Z,994.37
2018-03-29T04:52:05.851Z,994.37
2018-03-29T04:53:53.578Z,994.48
2018-03-29T04:55:07.410Z,994.51
2018-03-29T04:57:13.053Z,994.52
2018-03-29T04:58:04.868Z,994.55
2018-03-29T04:59:29.656Z,994.51
2018-03-29T05:00:35.604Z,994.56
2018-03-29T05:03:46.172Z,994.57
2018-03-29T05:07:04.932Z,994.59
2018-03-29T05:08:13.440Z,994.61
2018-03-29T05:09:22.353Z,994.61
2018-03-29T05:10:30.148Z,994.60
2018-03-29T05:11:27.182Z,994.61
2018-03-29T05:12:48.796Z,994.59
2018-03-29T05:15:51.893Z,994.62
2018-03-29T05:16:53.226Z,994.64
2018-03-29T05:18:08.797Z,994.62
2018-03-29T05:19:24.686Z,994.66
2018-03-29T05:21:17.624Z,994.66
2018-03-29T05:23:21.223Z,994.71
2018-03-29T05:25:35.879Z,994.74
2018-03-29T05:26:45.819Z,994.75
2018-03-29T05:28:03.868Z,994.78
2018-03-29T05:28:54.435Z,994.78
2018-03-29T05:29:51.369Z,994.78
2018-03-29T05:31:02.233Z,994.77
2018-03-29T05:33:21.088Z,994.82
2018-03-29T05:34:21.709Z,994.77
2018-03-29T05:35:35.234Z,994.80
2018-03-29T05:36:45.279Z,994.79
2018-03-29T05:37:46.203Z,994.80
2018-03-29T05:38:57.990Z,994.77
2018-03-29T05:40:05.498Z,994.76
2018-03-29T05:41:02.608Z,994.79
2018-03-29T05:42:13.470Z,994.76
2018-03-29T05:43:15.366Z,994.72
2018-03-29T05:44:35.193Z,994.71
2018-03-29T05:45:34.997Z,994.72
2018-03-29T05:46:38.793Z,994.63
2018-03-29T05:47:33.783Z,994.62
2018-03-29T05:48:50.589Z,994.64
2018-03-29T05:49:51.511Z,994.66
2018-03-29T05:51:18.142Z,994.67
2018-03-29T05:53:19.896Z,994.71
2018-03-29T05:54:27.992Z,994.74
2018-03-29T05:55:13.562Z,994.76
2018-03-29T05:56:16.537Z,994.77
2018-03-29T05:57:26.280Z,994.79
2018-03-29T05:58:34.165Z,994.73
2018-03-29T05:59:30.997Z,994.73
2018-03-29T06:00:39.811Z,994.76
2018-03-29T06:02:00.604Z,994.78
2018-03-29T06:02:59.500Z,994.78
2018-03-29T06:04:11.280Z,994.81
2018-03-29T06:05:08.817Z,994.83
2018-03-29T06:06:35.969Z,994.84
2018-03-29T06:07:22.869Z,994.85
2018-03-29T06:09:39.464Z,994.91
2018-03-29T06:10:38.345Z,994.89
2018-03-29T06:12:06.204Z,994.86
2018-03-29T06:13:04.265Z,994.85
2018-03-29T06:13:58.845Z,994.86
2018-03-29T06:15:23.736Z,994.85
2018-03-29T06:15:58.656Z,994.87
2018-03-29T06:17:50.528Z,994.86
2018-03-29T06:18:42.196Z,994.86
2018-03-29T06:21:58.814Z,994.93
2018-03-29T06:23:37.618Z,994.93
2018-03-29T06:24:41.413Z,994.96
2018-03-29T06:26:06.201Z,994.97
2018-03-29T06:27:06.002Z,994.95
2018-03-29T06:28:28.741Z,994.97
2018-03-29T06:29:22.712Z,994.97
2018-03-29T06:30:35.513Z,994.97
2018-03-29T06:33:06.046Z,995.00
2018-03-29T06:33:40.860Z,994.97
2018-03-29T06:35:22.750Z,994.96
2018-03-29T06:36:34.639Z,995.02
2018-03-29T06:39:05.266Z,994.98
2018-03-29T06:41:47.982Z,994.97
2018-03-29T06:42:33.757Z,994.92
2018-03-29T06:44:29.877Z,994.98
2018-03-29T06:45:41.255Z,994.92
2018-03-29T06:46:30.199Z,994.92
2018-03-29T06:47:36.047Z,994.93
2018-03-29T06:48:57.860Z,994.89
2018-03-29T06:50:20.601Z,994.84
2018-03-29T06:51:09.344Z,994.88
2018-03-29T06:52:09.146Z,994.83
2018-03-29T06:53:55.235Z,994.82
2018-03-29T06:54:53.703Z,994.84
2018-03-29T06:55:34.054Z,994.87
2018-03-29T06:57:19.328Z,994.85
2018-03-29T06:58:09.701Z,994.86
2018-03-29T06:59:22.304Z,994.88
2018-03-29T07:00:16.164Z,994.94
2018-03-29T07:01:36.141Z,994.91
2018-03-29T07:02:10.035Z,994.87
2018-03-29T07:03:14.138Z,994.90
2018-03-29T07:04:34.425Z,994.89
2018-03-29T07:05:24.699Z,994.98
2018-03-29T07:06:37.609Z,994.94
2018-03-29T07:07:52.360Z,994.90
2018-03-29T07:09:09.162Z,994.92
2018-03-29T07:10:05.897Z,994.94
2018-03-29T07:12:06.522Z,994.94
2018-03-29T07:13:08.677Z,994.90
2018-03-29T07:15:38.186Z,994.91
2018-03-29T07:20:08.523Z,994.92
2018-03-29T07:20:42.620Z,994.96
2018-03-29T07:23:15.814Z,994.93
2018-03-29T07:24:02.511Z,994.96
2018-03-29T07:25:09.683Z,994.94
2018-03-29T07:26:15.833Z,994.98
2018-03-29T07:27:32.432Z,994.95
2018-03-29T07:28:26.701Z,994.94
2018-03-29T07:29:20.993Z,994.93
2018-03-29T07:30:42.691Z,994.99
2018-03-29T07:31:37.066Z,995.00
2018-03-29T07:32:48.659Z,995.00
2018-03-29T07:34:01.260Z,995.00
2018-03-29T07:34:50.403Z,994.99
2018-03-29T07:36:04.441Z,995.01
2018-03-29T07:37:27.690Z,995.01
2018-03-29T07:38:40.391Z,995.07
2018-03-29T07:39:22.477Z,995.08
2018-03-29T07:41:37.854Z,995.06
2018-03-29T07:42:33.980Z,995.09
2018-03-29T07:43:41.348Z,995.15
2018-03-29T07:45:04.505Z,995.13
2018-03-29T07:46:50.380Z,995.17
2018-03-29T07:47:51.412Z,995.16
2018-03-29T07:49:35.964Z,995.18
2018-03-29T07:50:03.303Z,995.19
2018-03-29T07:51:27.583Z,995.22
2018-03-29T07:52:22.777Z,995.26
2018-03-29T07:53:48.080Z,995.29
2018-03-29T07:55:01.703Z,995.25
2018-03-29T07:55:47.885Z,995.23
2018-03-29T07:56:46.565Z,995.25
2018-03-29T07:57:48.000Z,995.23
2018-03-29T07:59:07.258Z,995.25
2018-03-29T08:00:05.420Z,995.24
2018-03-29T08:01:04.301Z,995.30
2018-03-29T08:03:15.886Z,995.33
2018-03-29T08:05:31.364Z,995.31
2018-03-29T08:07:43.977Z,995.38
2018-03-29T08:08:51.558Z,995.31
2018-03-29T08:09:50.130Z,995.31
2018-03-29T08:12:15.542Z,995.41
2018-03-29T08:13:16.267Z,995.46
2018-03-29T08:14:27.432Z,995.42
2018-03-29T08:17:35.339Z,995.47
2018-03-29T08:18:38.623Z,995.49
2018-03-29T08:19:40.983Z,995.47
2018-03-29T08:20:49.491Z,995.51
2018-03-29T08:22:09.978Z,995.56
2018-03-29T08:23:08.349Z,995.57
2018-03-29T08:23:57.196Z,995.55
2018-03-29T08:25:28.846Z,995.55
2018-03-29T08:26:19.019Z,995.56
2018-03-29T08:27:34.488Z,995.59
2018-03-29T08:28:40.024Z,995.68
2018-03-29T08:30:57.243Z,995.70
2018-03-29T08:32:11.189Z,995.70
2018-03-29T08:32:56.128Z,995.71
2018-03-29T08:33:49.889Z,995.70
2018-03-29T08:34:59.317Z,995.71
2018-03-29T08:36:12.329Z,995.75
2018-03-29T08:37:11.720Z,995.77
2018-03-29T08:38:25.452Z,995.80
2018-03-29T08:39:18.291Z,995.77
2018-03-29T08:40:24.746Z,995.77
2018-03-29T08:41:29.465Z,995.82
2018-03-29T08:42:55.385Z,995.78
2018-03-29T08:43:58.053Z,995.81
2018-03-29T08:45:31.130Z,995.80
2018-03-29T08:46:27.040Z,995.80
2018-03-29T08:47:23.468Z,995.76
2018-03-29T08:48:42.928Z,995.80
2018-03-29T08:49:18.259Z,995.78
2018-03-29T08:54:06.924Z,995.85
2018-03-29T08:55:28.743Z,995.82
2018-03-29T08:57:27.220Z,995.85
2018-03-29T08:58:39.115Z,995.80
2018-03-29T08:59:40.960Z,995.85
2018-03-29T09:01:26.844Z,995.84
2018-03-29T09:02:57.877Z,995.86
2018-03-29T09:04:21.433Z,995.86
2018-03-29T09:05:32.909Z,995.84
2018-03-29T09:07:17.973Z,995.83
2018-03-29T09:07:44.800Z,995.89
2018-03-29T09:09:43.692Z,995.87
2018-03-29T09:10:57.728Z,995.87
2018-03-29T09:13:13.203Z,995.89
2018-03-29T09:14:15.564Z,995.90
2018-03-29T09:16:58.589Z,995.84
2018-03-29T09:17:44.052Z,995.90
2018-03-29T09:19:31.573Z,995.92
2018-03-29T09:21:07.626Z,995.95
2018-03-29T09:23:24.739Z,995.93
2018-03-29T09:24:55.380Z,995.98
2018-03-29T09:27:21.195Z,995.96
2018-03-29T09:28:37.166Z,995.95
2018-03-29T09:31:04.218Z,995.97
2018-03-29T09:31:41.590Z,996.04
2018-03-29T09:32:49.378Z,995.98
2018-03-29T09:34:19.186Z,995.99
2018-03-29T09:36:37.631Z,996.01
2018-03-29T09:37:23.110Z,995.96
2018-03-29T09:38:39.592Z,995.99
2018-03-29T09:39:51.679Z,995.97
2018-03-29T09:40:44.211Z,995.99
2018-03-29T09:41:37.882Z,995.98
2018-03-29T09:42:47.913Z,996.01
2018-03-29T09:43:43.824Z,995.99
2018-03-29T09:47:01.559Z,996.00
2018-03-29T09:48:17.950Z,995.97
2018-03-29T09:51:31.695Z,996.03
2018-03-29T09:53:06.269Z,996.04
2018-03-29T09:53:47.885Z,996.04
2018-03-29T09:54:54.972Z,996.03
2018-03-29T09:55:45.033Z,996.04
2018-03-29T09:56:54.770Z,996.03
2018-03-29T09:58:11.995Z,996.05
2018-03-29T09:59:22.329Z,996.06
2018-03-29T10:00:12.812Z,996.09
2018-03-29T10:01:10.055Z,996.04
2018-03-29T10:03:30.035Z,996.06
2018-03-29T10:05:39.983Z,996.02
2018-03-29T10:06:49.922Z,996.04
2018-03-29T10:07:50.135Z,996.06
2018-03-29T10:08:58.639Z,996.05
2018-03-29T10:09:57.318Z,996.06
2018-03-29T10:11:14.833Z,996.08
2018-03-29T10:12:22.418Z,996.07
2018-03-29T10:13:26.522Z,996.06
2018-03-29T10:14:30.433Z,996.06
2018-03-29T10:16:57.366Z,996.11
2018-03-29T10:18:51.364Z,996.13
2018-03-29T10:19:55.953Z,996.07
2018-03-29T10:21:14.291Z,996.11
2018-03-29T10:22:02.322Z,996.09
2018-03-29T10:23:11.437Z,996.09
2018-03-29T10:24:14.415Z,996.07
2018-03-29T10:25:20.871Z,996.09
2018-03-29T10:26:25.691Z,996.10
2018-03-29T10:28:28.783Z,996.08
2018-03-29T10:29:39.435Z,996.00
2018-03-29T10:30:44.252Z,996.05
2018-03-29T10:32:54.200Z,996.02
2018-03-29T10:33:59.838Z,996.01
2018-03-29T10:35:02.611Z,996.04
2018-03-29T10:37:15.643Z,995.98
2018-03-29T10:38:25.468Z,996.01
2018-03-29T10:39:45.851Z,995.98
2018-03-29T10:40:32.037Z,996.01
2018-03-29T10:41:36.654Z,995.99
2018-03-29T10:43:47.417Z,995.90
2018-03-29T10:44:57.356Z,995.99
2018-03-29T10:46:00.230Z,995.98
2018-03-29T10:47:07.919Z,995.99
2018-03-29T10:48:24.819Z,995.99
2018-03-29T10:49:15.818Z,995.98
2018-03-29T10:50:15.436Z,995.95
2018-03-29T10:51:26.389Z,995.96
2018-03-29T10:52:37.345Z,995.95
2018-03-29T10:54:47.902Z,996.00
2018-03-29T10:56:57.029Z,995.92
2018-03-29T10:58:05.180Z,995.96
2018-03-29T10:59:10.869Z,995.98
2018-03-29T11:00:18.861Z,996.01
2018-03-29T11:01:15.488Z,995.95
2018-03-29T11:02:18.567Z,995.94
2018-03-29T11:03:27.073Z,995.93
2018-03-29T11:04:44.705Z,995.92
2018-03-29T11:05:37.738Z,995.90
2018-03-29T11:06:38.462Z,995.91
2018-03-29T11:08:57.424Z,995.90
2018-03-29T11:10:10.022Z,995.87
2018-03-29T11:11:12.180Z,995.94
2018-03-29T11:12:13.827Z,995.91
2018-03-29T11:13:19.472Z,995.96
2018-03-29T11:14:21.731Z,995.87
2018-03-29T11:15:26.238Z,995.87
2018-03-29T11:16:42.427Z,995.87
2018-03-29T11:17:40.178Z,995.82
2018-03-29T11:18:37.213Z,995.84
2018-03-29T11:19:54.936Z,995.86
2018-03-29T11:21:02.725Z,995.87
2018-03-29T11:21:55.987Z,995.88
2018-03-29T11:24:17.698Z,995.89
2018-03-29T11:25:23.848Z,995.88
2018-03-29T11:26:34.097Z,995.87
2018-03-29T11:27:28.068Z,995.88
2018-03-29T11:28:30.116Z,995.92
2018-03-29T11:29:42.922Z,995.86
2018-03-29T11:30:46.514Z,995.90
2018-03-29T11:34:15.212Z,995.89
2018-03-29T11:35:19.733Z,995.90
2018-03-29T11:36:17.474Z,995.90
2018-03-29T11:37:39.914Z,995.94
2018-03-29T11:38:13.904Z,995.94
2018-03-29T11:39:38.283Z,995.89
2018-03-29T11:40:36.959Z,995.91
2018-03-29T11:41:56.831Z,995.92
2018-03-29T11:43:57.868Z,995.89
2018-03-29T11:45:56.251Z,995.89
2018-03-29T11:49:21.353Z,995.90
2018-03-29T11:50:19.313Z,995.84
2018-03-29T11:51:27.409Z,995.83
2018-03-29T11:52:44.519Z,995.84
2018-03-29T11:53:53.807Z,995.85
2018-03-29T11:56:00.927Z,995.84
2018-03-29T11:57:04.616Z,995.83
2018-03-29T11:58:06.067Z,995.87
2018-03-29T11:59:11.902Z,995.88
2018-03-29T12:00:04.431Z,995.86
2018-03-29T12:01:15.910Z,995.84
2018-03-29T12:02:23.193Z,995.75
2018-03-29T12:03:40.089Z,995.74
2018-03-29T12:04:43.782Z,995.79
2018-03-29T12:05:44.610Z,995.73
2018-03-29T12:06:47.080Z,995.76
2018-03-29T12:07:54.247Z,995.74
2018-03-29T12:09:02.344Z,995.67
2018-03-29T12:10:12.387Z,995.70
2018-03-29T12:11:05.021Z,995.72
2018-03-29T12:12:19.377Z,995.73
2018-03-29T12:13:27.768Z,995.75
2018-03-29T12:15:35.053Z,995.74
2018-03-29T12:16:31.798Z,995.77
2018-03-29T12:17:38.041Z,995.71
2018-03-29T12:18:54.528Z,995.77
2018-03-29T12:19:54.128Z,995.72
2018-03-29T12:20:53.210Z,995.67
2018-03-29T12:22:02.027Z,995.66
2018-03-29T12:23:21.796Z,995.67
2018-03-29T12:25:19.252Z,995.64
2018-03-29T12:26:26.116Z,995.68
2018-03-29T12:27:29.503Z,995.66
2018-03-29T12:28:35.245Z,995.65
2018-03-29T12:29:40.890Z,995.65
2018-03-29T12:30:58.510Z,995.66
2018-03-29T12:31:52.058Z,995.64
2018-03-29T12:33:02.512Z,995.64
2018-03-29T12:34:16.145Z,995.65
2018-03-29T12:35:10.718Z,995.65
2018-03-29T12:37:24.967Z,995.59
2018-03-29T12:39:39.129Z,995.66
2018-03-29T12:40:37.990Z,995.72
2018-03-29T12:41:36.768Z,995.70
2018-03-29T12:42:56.953Z,995.68
2018-03-29T12:43:52.050Z,995.72
2018-03-29T12:46:13.561Z,995.68
2018-03-29T12:47:08.682Z,995.71
2018-03-29T12:48:06.826Z,995.73
2018-03-29T12:49:18.290Z,995.69
2018-03-29T12:50:54.857Z,995.72
2018-03-29T12:52:45.038Z,995.69
2018-03-29T12:54:54.779Z,995.70
2018-03-29T12:56:04.312Z,995.74
2018-03-29T12:57:18.142Z,995.73
2018-03-29T12:58:00.433Z,995.74
2018-03-29T13:00:30.143Z,995.72
2018-03-29T13:01:43.359Z,995.74
2018-03-29T13:02:32.108Z,995.72
2018-03-29T13:03:47.675Z,995.78
2018-03-29T13:04:52.093Z,995.68
2018-03-29T13:07:12.680Z,995.75
2018-03-29T13:08:28.524Z,995.72
2018-03-29T13:09:33.995Z,995.72
2018-03-29T13:11:03.391Z,995.73
2018-03-29T13:14:08.233Z,995.78
2018-03-29T13:14:50.207Z,995.72
2018-03-29T13:16:03.741Z,995.80
2018-03-29T13:19:15.222Z,995.85
2018-03-29T13:22:33.369Z,995.93
2018-03-29T13:23:28.768Z,995.88
2018-03-29T13:24:38.005Z,995.96
2018-03-29T13:25:36.871Z,995.92
2018-03-29T13:26:55.617Z,995.97
2018-03-29T13:28:59.317Z,996.18
2018-03-29T13:30:17.347Z,996.15
2018-03-29T13:31:23.910Z,996.18
2018-03-29T13:32:24.735Z,996.19
2018-03-29T13:33:28.735Z,996.23
2018-03-29T13:34:37.547Z,996.10
2018-03-29T13:35:39.509Z,996.19
2018-03-29T13:36:43.400Z,996.27
2018-03-29T13:40:09.839Z,996.24
2018-03-29T13:41:10.563Z,996.26
2018-03-29T13:42:17.840Z,996.21
2018-03-29T13:44:07.512Z,996.20
2018-03-29T13:45:20.219Z,996.18
2018-03-29T13:47:31.187Z,996.21
2018-03-29T13:48:46.042Z,996.18
2018-03-29T13:49:43.094Z,996.01
2018-03-29T13:50:55.068Z,995.97
2018-03-29T13:51:52.617Z,995.94
2018-03-29T13:55:31.961Z,995.97
2018-03-29T13:56:14.977Z,995.96
2018-03-29T13:57:25.830Z,995.97
2018-03-29T13:58:35.053Z,995.93
2018-03-29T13:59:42.637Z,995.84
2018-03-29T14:00:59.847Z,995.91
2018-03-29T14:02:43.784Z,995.95
2018-03-29T14:03:52.397Z,995.91
2018-03-29T14:04:55.581Z,995.89
2018-03-29T14:06:41.560Z,995.84
2018-03-29T14:08:17.919Z,995.82
2018-03-29T14:09:23.966Z,995.81
2018-03-29T14:10:24.281Z,995.84
2018-03-29T14:11:34.119Z,995.85
2018-03-29T14:12:34.331Z,995.87
2018-03-29T14:15:04.146Z,995.80
2018-03-29T14:16:09.185Z,995.73
2018-03-29T14:17:08.049Z,995.74
2018-03-29T14:19:12.363Z,995.76
2018-03-29T14:20:20.972Z,995.74
2018-03-29T14:22:27.237Z,995.69
2018-03-29T14:23:26.627Z,995.69
2018-03-29T14:24:39.332Z,995.71
2018-03-29T14:25:41.283Z,995.73
2018-03-29T14:26:50.300Z,995.77
2018-03-29T14:27:48.167Z,995.75
2018-03-29T14:28:52.979Z,995.69
2018-03-29T14:30:19.721Z,995.69
2018-03-29T14:31:12.653Z,995.73
2018-03-29T14:32:28.331Z,995.71
2018-03-29T14:33:16.456Z,995.75
2018-03-29T14:34:37.556Z,995.73
2018-03-29T14:35:32.135Z,995.69
2018-03-29T14:36:49.963Z,995.66
2018-03-29T14:37:54.987Z,995.66
2018-03-29T14:39:00.526Z,995.71
2018-03-29T14:40:18.757Z,995.68
2018-03-29T14:42:20.418Z,995.69
2018-03-29T14:43:31.888Z,995.70
2018-03-29T14:44:28.454Z,995.68
2018-03-29T14:45:28.111Z,995.70
2018-03-29T14:46:39.382Z,995.70
2018-03-29T14:48:32.741Z,995.80
2018-03-29T14:52:25.399Z,995.81
2018-03-29T14:53:24.687Z,995.83
2018-03-29T14:54:05.236Z,995.85
2018-03-29T14:55:07.435Z,995.84
2018-03-29T14:57:25.839Z,995.83
2018-03-29T14:58:24.719Z,995.82
2018-03-29T14:59:38.453Z,995.83
2018-03-29T15:00:48.900Z,995.85
2018-03-29T15:01:35.287Z,995.88
2018-03-29T15:03:08.781Z,995.93
2018-03-29T15:04:03.055Z,995.97
2018-03-29T15:04:59.681Z,995.97
2018-03-29T15:06:20.068Z,996.02
2018-03-29T15:07:21.570Z,996.00
2018-03-29T15:08:27.247Z,995.95
2018-03-29T15:09:26.844Z,996.01
2018-03-29T15:10:43.441Z,996.03
2018-03-29T15:11:41.604Z,996.04
2018-03-29T15:13:06.703Z,996.02
2018-03-29T15:13:46.649Z,996.01
2018-03-29T15:16:26.284Z,996.05
2018-03-29T15:17:10.825Z,996.02
2018-03-29T15:18:22.103Z,996.07
2018-03-29T15:19:08.382Z,996.12
2018-03-29T15:20:35.626Z,996.12
2018-03-29T15:21:20.387Z,996.08
2018-03-29T15:23:45.478Z,996.01
2018-03-29T15:25:51.745Z,995.87
2018-03-29T15:28:09.468Z,995.78
2018-03-29T15:29:09.063Z,995.81
2018-03-29T15:30:10.716Z,995.83
2018-03-29T15:31:29.254Z,995.79
2018-03-29T15:32:35.608Z,995.78
2018-03-29T15:33:25.987Z,995.80
2018-03-29T15:34:31.628Z,995.73
2018-03-29T15:35:44.338Z,995.72
2018-03-29T15:36:38.195Z,995.72
2018-03-29T15:38:55.514Z,995.74
2018-03-29T15:39:58.592Z,995.81
2018-03-29T15:41:14.577Z,995.84
2018-03-29T15:42:04.342Z,995.87
2018-03-29T15:43:16.023Z,995.88
2018-03-29T15:44:22.482Z,995.87
2018-03-29T15:46:32.648Z,995.88
2018-03-29T15:48:43.298Z,995.88
2018-03-29T15:49:54.467Z,995.88
2018-03-29T15:50:53.037Z,995.89
2018-03-29T15:53:09.844Z,995.97
2018-03-29T15:54:10.773Z,995.87
2018-03-29T15:55:19.484Z,995.90
2018-03-29T15:57:20.869Z,995.85
2018-03-29T15:58:38.449Z,995.85
2018-03-29T16:00:48.194Z,995.81
2018-03-29T16:01:50.760Z,995.83
2018-03-29T16:02:54.658Z,995.82
2018-03-29T16:04:03.470Z,995.79
2018-03-29T16:05:02.044Z,995.79
2018-03-29T16:06:11.165Z,995.82
2018-03-29T16:07:21.519Z,995.77
2018-03-29T16:08:19.783Z,995.74
2018-03-29T16:10:31.264Z,995.67
2018-03-29T16:11:36.187Z,995.67
2018-03-29T16:12:44.193Z,995.69
2018-03-29T16:15:10.204Z,995.67
2018-03-29T16:15:53.724Z,995.67
2018-03-29T16:17:13.707Z,995.67
2018-03-29T16:18:18.213Z,995.66
2018-03-29T16:19:17.303Z,995.66
2018-03-29T16:20:18.943Z,995.66
2018-03-29T16:21:32.569Z,995.67
2018-03-29T16:22:38.821Z,995.65
2018-03-29T16:23:51.127Z,995.63
2018-03-29T16:24:38.852Z,995.62
2018-03-29T16:25:49.807Z,995.58
2018-03-29T16:26:53.698Z,995.58
2018-03-29T16:28:06.201Z,995.58
2018-03-29T16:29:26.079Z,995.55
2018-03-29T16:30:32.937Z,995.58
2018-03-29T16:31:19.018Z,995.59
2018-03-29T16:32:27.935Z,995.57